createdAt,value
2023-02-03T00:02:46.288Z,0.57
2023-02-03T00:05:49.046Z,0.43
2023-02-03T00:08:57.218Z,0.34
2023-02-03T00:11:59.972Z,0.32
2023-02-03T00:15:03.390Z,0.32
2023-02-03T00:18:06.860Z,0.43
2023-02-03T00:21:09.859Z,0.33
2023-02-03T00:24:12.616Z,0.22
2023-02-03T00:27:15.708Z,0.20
2023-02-03T00:30:18.280Z,0.13
2023-02-03T00:33:21.334Z,-0.01
2023-02-03T00:36:25.572Z,-0.02
2023-02-03T00:39:28.272Z,-0.03
2023-02-03T00:42:31.953Z,-0.02
2023-02-03T00:45:34.546Z,0.05
2023-02-03T00:48:37.956Z,0.07
2023-02-03T00:51:40.832Z,0.16
2023-02-03T00:54:43.233Z,0.00
2023-02-03T00:57:46.406Z,-0.02
2023-02-03T01:00:48.924Z,-0.10
2023-02-03T01:03:51.913Z,-0.21
2023-02-03T01:06:57.529Z,-0.27
2023-02-03T01:10:00.208Z,-0.37
2023-02-03T01:13:02.904Z,-0.39
2023-02-03T01:16:13.367Z,-0.46
2023-02-03T01:19:17.008Z,-0.45
2023-02-03T01:22:20.362Z,-0.62
2023-02-03T01:25:22.899Z,-0.48
2023-02-03T01:28:25.939Z,-0.50
2023-02-03T01:31:31.546Z,-0.65
2023-02-03T01:34:35.337Z,-0.78
2023-02-03T01:37:37.998Z,-0.97
2023-02-03T01:40:44.909Z,-1.13
2023-02-03T01:43:51.168Z,-1.07
2023-02-03T01:46:54.196Z,-1.35
2023-02-03T01:50:03.532Z,-1.52
2023-02-03T01:53:12.044Z,-1.40
2023-02-03T01:56:14.837Z,-1.41
2023-02-03T01:59:21.631Z,-1.40
2023-02-03T02:02:25.191Z,-1.50
2023-02-03T02:05:47.470Z,-1.31
2023-02-03T02:08:53.324Z,-1.29
2023-02-03T02:11:55.937Z,-1.22
2023-02-03T02:14:58.983Z,-1.12
2023-02-03T02:18:22.846Z,-1.07
2023-02-03T02:21:28.498Z,-1.18
2023-02-03T02:24:49.837Z,-1.22
2023-02-03T02:28:22.910Z,-1.22
2023-02-03T02:31:54.491Z,-1.48
2023-02-03T02:35:08.609Z,-1.58
2023-02-03T02:38:37.270Z,-1.53
2023-02-03T02:41:47.095Z,-1.58
2023-02-03T02:44:55.508Z,-1.53
2023-02-03T02:48:27.419Z,-1.59
2023-02-03T02:51:33.300Z,-1.59
2023-02-03T02:54:42.541Z,-1.46
2023-02-03T02:57:48.250Z,-1.53
2023-02-03T03:00:54.978Z,-1.67
2023-02-03T03:04:03.802Z,-1.64
2023-02-03T03:07:18.660Z,-1.56
2023-02-03T03:10:27.771Z,-1.82
2023-02-03T03:13:36.969Z,-1.83
2023-02-03T03:16:44.578Z,-1.80
2023-02-03T03:19:52.342Z,-1.95
2023-02-03T03:23:02.131Z,-2.03
2023-02-03T03:26:11.927Z,-2.03
2023-02-03T03:29:20.497Z,-2.01
2023-02-03T03:32:23.557Z,-2.05
2023-02-03T03:35:37.428Z,-1.96
2023-02-03T03:38:49.168Z,-2.03
2023-02-03T03:42:08.615Z,-2.01
2023-02-03T03:45:35.929Z,-1.95
2023-02-03T03:48:50.300Z,-1.97
2023-02-03T03:51:59.133Z,-2.05
2023-02-03T03:55:05.465Z,-1.99
2023-02-03T03:58:25.047Z,-1.98
2023-02-03T04:01:29.585Z,-2.07
2023-02-03T04:04:34.328Z,-2.06
2023-02-03T04:07:43.384Z,-2.18
2023-02-03T04:10:46.089Z,-2.54
2023-02-03T04:13:48.780Z,-2.61
2023-02-03T04:16:51.475Z,-2.47
2023-02-03T04:19:54.149Z,-2.53
2023-02-03T04:22:57.023Z,-2.52
2023-02-03T04:26:01.690Z,-2.44
2023-02-03T04:29:04.580Z,-2.56
2023-02-03T04:32:07.594Z,-2.61
2023-02-03T04:35:10.044Z,-2.67
2023-02-03T04:38:13.065Z,-2.51
2023-02-03T04:41:16.188Z,-2.39
2023-02-03T04:44:19.026Z,-2.41
2023-02-03T04:47:21.630Z,-2.36
2023-02-03T04:50:24.600Z,-2.37
2023-02-03T04:53:27.290Z,-2.33
2023-02-03T04:56:29.948Z,-2.30
2023-02-03T04:59:32.782Z,-2.27
2023-02-03T05:02:35.651Z,-2.31
2023-02-03T05:05:38.133Z,-2.33
2023-02-03T05:08:41.068Z,-2.30
2023-02-03T05:11:43.482Z,-2.36
2023-02-03T05:14:46.348Z,-2.40
2023-02-03T05:17:51.290Z,-2.40
2023-02-03T05:20:53.949Z,-2.39
2023-02-03T05:23:56.484Z,-2.24
2023-02-03T05:26:59.300Z,-2.48
2023-02-03T05:30:02.353Z,-2.48
2023-02-03T05:33:05.043Z,-2.49
2023-02-03T05:36:08.093Z,-2.41
2023-02-03T05:39:10.985Z,-2.48
2023-02-03T05:42:13.636Z,-2.46
2023-02-03T05:45:17.307Z,-2.42
2023-02-03T05:48:20.029Z,-2.34
2023-02-03T05:51:22.927Z,-2.32
2023-02-03T05:54:25.446Z,-2.35
2023-02-03T05:57:28.087Z,-2.45
2023-02-03T06:00:32.612Z,-2.34
2023-02-03T06:03:35.431Z,-2.28
2023-02-03T06:06:37.998Z,-2.37
2023-02-03T06:09:40.882Z,-2.25
2023-02-03T06:12:43.744Z,-2.43
2023-02-03T06:15:46.696Z,-2.75
2023-02-03T06:18:49.367Z,-2.46
2023-02-03T06:21:51.971Z,-2.47
2023-02-03T06:24:54.816Z,-2.32
2023-02-03T06:27:57.532Z,-2.29
2023-02-03T06:31:00.252Z,-2.30
2023-02-03T06:34:03.347Z,-2.15
2023-02-03T06:37:05.811Z,-1.99
2023-02-03T06:40:09.803Z,-1.75
2023-02-03T06:43:12.254Z,-1.62
2023-02-03T06:46:14.907Z,-1.53
2023-02-03T06:49:17.847Z,-1.58
2023-02-03T06:52:20.455Z,-1.41
2023-02-03T06:55:22.846Z,-1.35
2023-02-03T06:58:25.578Z,-0.85
2023-02-03T07:01:29.774Z,-0.80
2023-02-03T07:04:32.916Z,-0.79
2023-02-03T07:07:35.904Z,-0.64
2023-02-03T07:10:38.518Z,-0.90
2023-02-03T07:13:41.125Z,-0.86
2023-02-03T07:16:43.768Z,-0.82
2023-02-03T07:19:46.273Z,-0.93
2023-02-03T07:22:57.130Z,-0.68
2023-02-03T07:26:00.634Z,-0.41
2023-02-03T07:29:03.338Z,-0.24
2023-02-03T07:32:06.048Z,-0.21
2023-02-03T07:35:08.781Z,-0.43
2023-02-03T07:38:12.428Z,-0.28
2023-02-03T07:41:17.627Z,-0.19
2023-02-03T07:44:20.624Z,-0.16
2023-02-03T07:47:23.235Z,-0.16
2023-02-03T07:50:26.147Z,-0.07
2023-02-03T07:53:28.863Z,-0.02
2023-02-03T07:56:32.901Z,0.00
2023-02-03T07:59:35.477Z,0.13
2023-02-03T08:02:38.274Z,0.19
2023-02-03T08:05:40.896Z,0.27
2023-02-03T08:08:44.046Z,0.28
2023-02-03T08:11:46.559Z,0.60
2023-02-03T08:14:49.324Z,0.66
2023-02-03T08:17:52.206Z,0.73
2023-02-03T08:20:54.878Z,0.76
2023-02-03T08:23:57.370Z,0.83
2023-02-03T08:27:01.385Z,0.86
2023-02-03T08:30:04.562Z,0.17
2023-02-03T08:33:07.140Z,0.03
2023-02-03T08:36:11.343Z,-0.08
2023-02-03T08:39:13.949Z,0.06
2023-02-03T08:42:17.200Z,0.23
2023-02-03T08:45:19.982Z,0.28
2023-02-03T08:48:22.617Z,0.66
2023-02-03T08:51:25.182Z,0.72
2023-02-03T08:54:27.878Z,0.63
2023-02-03T08:57:35.864Z,0.53
2023-02-03T09:00:38.703Z,0.51
2023-02-03T09:03:41.430Z,0.77
2023-02-03T09:06:43.968Z,1.06
2023-02-03T09:09:46.504Z,1.22
2023-02-03T09:12:49.257Z,1.42
2023-02-03T09:15:51.915Z,1.08
2023-02-03T09:18:54.851Z,1.15
2023-02-03T09:21:57.972Z,0.80
2023-02-03T09:25:01.332Z,0.95
2023-02-03T09:28:04.021Z,0.85
2023-02-03T09:31:12.689Z,1.02
2023-02-03T09:34:15.339Z,0.93
2023-02-03T09:37:18.003Z,0.80
2023-02-03T09:40:42.157Z,1.08
2023-02-03T09:43:54.397Z,1.02
2023-02-03T09:47:01.009Z,1.22
2023-02-03T09:50:07.540Z,1.26
2023-02-03T09:53:35.825Z,1.11
2023-02-03T09:56:40.841Z,1.17
2023-02-03T09:59:47.325Z,1.53
2023-02-03T10:02:58.547Z,1.62
2023-02-03T10:06:25.856Z,1.56
2023-02-03T10:09:59.043Z,1.44
2023-02-03T10:13:30.420Z,1.70
2023-02-03T10:16:40.114Z,1.45
2023-02-03T10:19:55.513Z,1.44
2023-02-03T10:23:01.741Z,1.71
2023-02-03T10:26:14.521Z,1.91
2023-02-03T10:29:37.913Z,1.85
2023-02-03T10:32:40.491Z,1.95
2023-02-03T10:35:57.479Z,2.43
2023-02-03T10:39:10.653Z,2.26
2023-02-03T10:42:13.989Z,2.55
2023-02-03T10:45:16.820Z,2.47
2023-02-03T10:48:19.699Z,2.35
2023-02-03T10:51:25.175Z,2.16
2023-02-03T10:54:32.232Z,2.14
2023-02-03T10:57:39.452Z,2.16
2023-02-03T11:00:42.087Z,2.09
2023-02-03T11:04:05.872Z,2.18
2023-02-03T11:07:25.010Z,2.14
2023-02-03T11:10:35.861Z,2.12
2023-02-03T11:13:38.807Z,2.03
2023-02-03T11:16:44.300Z,2.08
2023-02-03T11:19:48.584Z,1.92
2023-02-03T11:22:51.178Z,1.83
2023-02-03T11:25:53.810Z,1.86
2023-02-03T11:29:00.137Z,1.96
2023-02-03T11:32:22.354Z,2.04
2023-02-03T11:35:26.836Z,2.05
2023-02-03T11:38:33.507Z,2.10
2023-02-03T11:41:40.648Z,2.04
2023-02-03T11:44:43.233Z,2.14
2023-02-03T11:47:54.092Z,2.04
2023-02-03T11:51:02.689Z,2.11
2023-02-03T11:54:24.351Z,2.10
2023-02-03T11:57:51.099Z,2.47
2023-02-03T12:01:13.862Z,2.52
2023-02-03T12:04:53.906Z,3.01
2023-02-03T12:08:45.629Z,3.36
2023-02-03T12:12:00.384Z,3.45
2023-02-03T12:15:40.154Z,3.19
2023-02-03T12:19:13.917Z,2.58
2023-02-03T12:22:45.079Z,2.30
2023-02-03T12:26:11.945Z,2.18
2023-02-03T12:29:23.552Z,2.17
2023-02-03T12:32:36.741Z,2.06
2023-02-03T12:36:05.013Z,2.04
2023-02-03T12:39:30.939Z,1.96
2023-02-03T12:42:42.446Z,1.96
2023-02-03T12:45:55.184Z,2.03
2023-02-03T12:49:18.822Z,2.24
2023-02-03T12:52:27.820Z,2.27
2023-02-03T12:55:45.189Z,2.04
2023-02-03T12:58:57.182Z,1.96
2023-02-03T13:02:09.870Z,1.99
2023-02-03T13:05:26.993Z,1.96
2023-02-03T13:08:34.454Z,1.96
2023-02-03T13:11:43.960Z,1.94
2023-02-03T13:15:18.371Z,1.74
2023-02-03T13:18:31.878Z,1.66
2023-02-03T13:21:34.290Z,1.67
2023-02-03T13:24:37.913Z,1.53
2023-02-03T13:27:48.716Z,1.39
2023-02-03T13:31:25.716Z,1.10
2023-02-03T13:35:00.722Z,0.76
2023-02-03T13:38:31.180Z,0.64
2023-02-03T13:41:51.355Z,0.58
2023-02-03T13:44:59.392Z,0.53
2023-02-03T13:48:14.976Z,0.51
2023-02-03T13:51:46.425Z,0.56
2023-02-03T13:54:49.085Z,0.31
2023-02-03T13:57:52.301Z,0.16
2023-02-03T14:00:56.459Z,0.21
2023-02-03T14:03:59.779Z,0.15
2023-02-03T14:07:04.353Z,0.14
2023-02-03T14:10:12.999Z,0.15
2023-02-03T14:13:21.437Z,0.29
2023-02-03T14:16:25.734Z,0.25
2023-02-03T14:19:28.237Z,0.24
2023-02-03T14:22:31.868Z,0.25
2023-02-03T14:25:41.209Z,0.00
2023-02-03T14:28:46.839Z,-0.10
2023-02-03T14:31:58.787Z,-0.05
2023-02-03T14:35:01.720Z,-0.31
2023-02-03T14:38:07.989Z,-0.35
2023-02-03T14:41:11.060Z,-0.41
2023-02-03T14:44:22.379Z,-0.44
2023-02-03T14:47:33.862Z,-0.37
2023-02-03T14:51:13.629Z,-0.42
2023-02-03T14:54:38.285Z,-0.42
2023-02-03T14:57:49.232Z,-0.46
2023-02-03T15:00:54.131Z,-0.46
2023-02-03T15:04:16.749Z,-0.46
2023-02-03T15:07:39.383Z,-0.47
2023-02-03T15:10:43.794Z,-0.48
2023-02-03T15:13:46.372Z,-0.49
2023-02-03T15:16:55.052Z,-0.48
2023-02-03T15:19:57.602Z,-0.49
2023-02-03T15:23:00.528Z,-0.49
2023-02-03T15:26:14.892Z,-0.49
2023-02-03T15:29:22.711Z,-0.53
2023-02-03T15:32:51.102Z,-0.53
2023-02-03T15:35:59.680Z,-0.53
2023-02-03T15:39:19.280Z,-0.53
2023-02-03T15:42:31.068Z,-0.56
2023-02-03T15:45:46.283Z,-0.52
2023-02-03T15:49:17.768Z,-0.50
2023-02-03T15:52:25.309Z,-0.52
2023-02-03T15:55:38.468Z,-0.51
2023-02-03T15:58:46.218Z,-0.49
2023-02-03T16:01:49.508Z,-0.50
2023-02-03T16:04:52.244Z,-0.48
2023-02-03T16:07:55.059Z,-0.51
2023-02-03T16:10:57.948Z,-0.50
2023-02-03T16:14:07.083Z,-0.47
2023-02-03T16:17:27.833Z,-0.51
2023-02-03T16:20:32.354Z,-0.48
2023-02-03T16:23:34.882Z,-0.47
2023-02-03T16:26:38.586Z,-0.49
2023-02-03T16:29:59.944Z,-0.46
2023-02-03T16:33:31.194Z,-0.45
2023-02-03T16:36:53.354Z,-0.44
2023-02-03T16:40:14.824Z,-0.42
2023-02-03T16:43:36.270Z,-0.40
2023-02-03T16:46:57.791Z,-0.37
2023-02-03T16:50:29.407Z,-0.33
2023-02-03T16:53:40.599Z,-0.36
2023-02-03T16:56:43.279Z,-0.35
2023-02-03T16:59:45.874Z,-0.39
2023-02-03T17:02:52.213Z,-0.39
2023-02-03T17:05:56.634Z,-0.40
2023-02-03T17:08:59.557Z,-0.38
2023-02-03T17:12:03.221Z,-0.39
2023-02-03T17:15:06.791Z,-0.38
2023-02-03T17:18:13.079Z,-0.39
2023-02-03T17:21:18.302Z,-0.40
2023-02-03T17:24:20.944Z,-0.40
2023-02-03T17:27:23.633Z,-0.40
2023-02-03T17:30:27.041Z,-0.39
2023-02-03T17:33:30.076Z,-0.40
2023-02-03T17:36:32.823Z,-0.39
2023-02-03T17:56:11.739Z,-0.35
2023-02-03T17:59:14.560Z,-0.32
2023-02-03T18:02:17.471Z,-0.34
2023-02-03T18:05:20.391Z,-0.32
2023-02-03T18:08:25.219Z,-0.30
2023-02-03T18:11:29.828Z,-0.30
2023-02-03T18:14:32.897Z,-0.30
2023-02-03T18:17:35.865Z,-0.25
2023-02-03T18:20:38.944Z,-0.21
2023-02-03T18:23:42.353Z,-0.24
2023-02-03T18:26:49.201Z,-0.22
2023-02-03T18:29:52.213Z,-0.19
2023-02-03T18:32:55.642Z,-0.20
2023-02-03T18:36:00.355Z,-0.19
2023-02-03T18:39:03.704Z,-0.17
2023-02-03T18:42:07.410Z,-0.12
2023-02-03T18:45:11.432Z,-0.17
2023-02-03T18:48:14.508Z,-0.15
2023-02-03T18:51:19.233Z,-0.14
2023-02-03T18:54:22.279Z,-0.04
2023-02-03T18:57:40.419Z,-0.08
2023-02-03T19:00:43.232Z,0.03
2023-02-03T19:03:46.145Z,-0.02
2023-02-03T19:06:52.712Z,-0.09
2023-02-03T19:09:55.546Z,-0.08
2023-02-03T19:12:59.865Z,-0.05
2023-02-03T19:16:02.773Z,-0.02
2023-02-03T19:19:05.548Z,0.04
2023-02-03T19:22:08.050Z,0.12
2023-02-03T19:25:12.174Z,0.07
2023-02-03T19:28:20.272Z,0.07
2023-02-03T19:31:31.291Z,0.09
2023-02-03T19:34:34.003Z,0.09
2023-02-03T19:37:37.824Z,0.08
2023-02-03T19:40:41.052Z,0.14
2023-02-03T19:43:43.920Z,0.23
2023-02-03T19:46:46.905Z,0.23
2023-02-03T19:49:49.994Z,0.30
2023-02-03T19:52:52.830Z,0.28
2023-02-03T19:55:55.771Z,0.29
2023-02-03T19:58:59.222Z,0.34
2023-02-03T20:02:12.514Z,0.31
2023-02-03T20:05:17.571Z,0.30
2023-02-03T20:08:20.619Z,0.23
2023-02-03T20:11:23.436Z,0.26
2023-02-03T20:14:26.959Z,0.21
2023-02-03T20:17:32.539Z,0.21
2023-02-03T20:20:35.817Z,0.32
2023-02-03T20:23:38.716Z,0.26
2023-02-03T20:26:41.685Z,0.28
2023-02-03T20:29:45.198Z,0.31
2023-02-03T20:32:48.896Z,0.36
2023-02-03T20:35:51.730Z,0.35
2023-02-03T20:38:54.494Z,0.29
2023-02-03T20:41:57.531Z,0.30
2023-02-03T20:45:00.546Z,0.33
2023-02-03T20:48:03.381Z,0.27
2023-02-03T20:51:14.162Z,0.33
2023-02-03T20:54:19.741Z,0.40
2023-02-03T20:57:23.334Z,0.27
2023-02-03T21:00:26.619Z,0.23
2023-02-03T21:03:48.410Z,0.21
2023-02-03T21:06:51.260Z,0.22
2023-02-03T21:09:54.690Z,0.15
2023-02-03T21:12:58.220Z,0.19
2023-02-03T21:16:03.976Z,0.19
2023-02-03T21:19:14.745Z,0.08
2023-02-03T21:22:26.394Z,0.17
2023-02-03T21:25:32.209Z,0.16
2023-02-03T21:28:35.588Z,0.16
2023-02-03T21:31:38.792Z,0.14
2023-02-03T21:34:45.162Z,0.19
2023-02-03T21:37:48.247Z,0.12
2023-02-03T21:40:51.459Z,0.15
2023-02-03T21:43:57.254Z,0.12
2023-02-03T21:47:05.406Z,0.08
2023-02-03T21:50:37.320Z,0.12
2023-02-03T21:53:40.906Z,0.08
2023-02-03T21:56:45.594Z,0.05
2023-02-03T21:59:49.489Z,0.11
2023-02-03T22:02:56.723Z,0.05
2023-02-03T22:06:08.867Z,-0.02
2023-02-03T22:09:13.938Z,-0.05
2023-02-03T22:12:16.574Z,-0.14
2023-02-03T22:15:19.231Z,-0.12
2023-02-03T22:18:22.159Z,-0.16
2023-02-03T22:21:25.446Z,-0.09
2023-02-03T22:24:28.269Z,-0.15
2023-02-03T22:27:31.831Z,-0.23
2023-02-03T22:30:34.668Z,-0.22
2023-02-03T22:33:37.869Z,-0.23
2023-02-03T22:36:40.831Z,-0.23
2023-02-03T22:39:43.330Z,-0.28
2023-02-03T22:42:46.311Z,-0.38
2023-02-03T22:45:48.780Z,-0.38
2023-02-03T22:48:51.676Z,-0.29
2023-02-03T22:51:54.397Z,-0.42
2023-02-03T22:54:57.072Z,-0.54
2023-02-03T22:57:59.891Z,-0.51
2023-02-03T23:01:03.389Z,-0.49
2023-02-03T23:04:06.134Z,-0.54
2023-02-03T23:07:09.108Z,-0.49
2023-02-03T23:10:17.456Z,-0.58
2023-02-03T23:13:20.439Z,-0.62
2023-02-03T23:16:22.985Z,-0.75
2023-02-03T23:19:25.896Z,-0.74
2023-02-03T23:22:28.944Z,-0.74
2023-02-03T23:25:31.661Z,-0.68
2023-02-03T23:28:34.384Z,-0.67
2023-02-03T23:31:37.376Z,-0.79
2023-02-03T23:34:58.900Z,-0.80
2023-02-03T23:38:01.975Z,-0.78
2023-02-03T23:41:04.578Z,-0.82
2023-02-03T23:44:07.737Z,-0.79
2023-02-03T23:47:10.288Z,-0.59
2023-02-03T23:50:15.921Z,-0.79
2023-02-03T23:53:18.744Z,-0.89
2023-02-03T23:56:21.346Z,-0.98
2023-02-03T23:59:24.431Z,-0.89
